Time;durP1;ratioP1;P1;durP2;ratioP2;P2;SDS_P1;SDS_P2;PMS_P1;PMS_P2;Temp;Humidity;BMP_temperature;BMP_pressure;BME280_temperature;BME280_humidity;BME280_pressure;Samples;Min_cycle;Max_cycle;Signal;HPM_P1;HPM_P2
2023/05/07 00:00:42;;;;;;;6.40;4.22;;;;;;;10.05;88.93;94853.41;5060031;28;20222;-75
2023/05/07 00:03:09;;;;;;;8.65;5.22;;;;;;;10.04;88.61;94855.31;5018845;28;1194644;-75
2023/05/07 00:05:37;;;;;;;8.68;5.20;;;;;;;9.88;89.55;94860.41;5047656;28;20200;-76
2023/05/07 00:08:04;;;;;;;11.80;4.95;;;;;;;9.82;90.58;94860.88;5048876;28;20200;-75
2023/05/07 00:10:31;;;;;;;10.30;5.85;;;;;;;9.78;91.29;94866.13;5059252;28;20204;-74
2023/05/07 00:12:58;;;;;;;8.77;5.30;;;;;;;9.76;92.17;94862.94;5047426;28;20223;-74
2023/05/07 00:15:25;;;;;;;10.55;5.93;;;;;;;9.72;92.69;94867.38;5056210;28;20203;-75
2023/05/07 00:17:51;;;;;;;13.15;6.75;;;;;;;9.68;93.58;94866.44;5054106;28;20211;-75
2023/05/07 00:20:18;;;;;;;10.90;6.15;;;;;;;9.61;94.12;94857.97;5058856;28;20273;-75
2023/05/07 00:22:46;;;;;;;12.98;6.72;;;;;;;9.67;94.21;94858.63;5060574;28;20260;-75
2023/05/07 00:25:13;;;;;;;10.20;6.70;;;;;;;9.69;93.43;94856.41;5056691;28;20845;-75
2023/05/07 00:27:40;;;;;;;9.98;6.32;;;;;;;9.72;93.39;94856.56;5054086;28;20212;-75
2023/05/07 00:30:08;;;;;;;13.45;6.60;;;;;;;9.67;93.83;94848.63;5058181;28;20299;-76
2023/05/07 00:32:34;;;;;;;10.55;6.00;;;;;;;9.68;93.96;94849.41;5060869;28;20204;-75
2023/05/07 00:35:01;;;;;;;13.68;7.00;;;;;;;9.88;93.45;94852.28;5056966;28;20231;-75
2023/05/07 00:37:28;;;;;;;13.75;6.75;;;;;;;9.87;93.29;94847.97;5053600;28;20199;-76
2023/05/07 00:39:56;;;;;;;12.80;6.82;;;;;;;9.79;94.08;94848.78;5066781;28;20203;-76
2023/05/07 00:42:23;;;;;;;10.95;7.05;;;;;;;9.63;94.77;94853.06;5050480;28;20298;-75
2023/05/07 00:44:50;;;;;;;12.63;6.93;;;;;;;9.70;95.06;94858.00;5047520;28;20218;-75
2023/05/07 00:47:17;;;;;;;14.25;6.80;;;;;;;9.63;95.37;94848.44;5054659;28;20195;-75
2023/05/07 00:49:45;;;;;;;15.13;7.95;;;;;;;9.61;95.91;94855.28;5058200;28;20199;-75
2023/05/07 00:52:14;;;;;;;12.43;6.68;;;;;;;9.51;96.38;94869.09;5049597;28;20724;-75
2023/05/07 00:54:42;;;;;;;12.52;7.35;;;;;;;9.39;97.63;94863.50;5047172;28;20285;-78
2023/05/07 00:57:12;;;;;;;10.35;6.90;;;;;;;9.36;97.40;94864.13;5064926;28;20307;-76
2023/05/07 00:59:39;;;;;;;10.40;7.10;;;;;;;9.35;97.18;94863.31;5060552;28;20211;-76
2023/05/07 01:02:06;;;;;;;12.93;6.57;;;;;;;9.30;97.22;94866.16;5053560;28;20229;-75
2023/05/07 01:04:33;;;;;;;16.55;7.80;;;;;;;9.28;97.24;94863.00;5054925;28;20203;-74
2023/05/07 01:07:02;;;;;;;12.25;6.95;;;;;;;9.36;96.68;94864.13;5066002;28;20207;-74
2023/05/07 01:09:29;;;;;;;17.02;7.63;;;;;;;9.43;96.38;94861.78;5054685;28;20220;-76
2023/05/07 01:11:58;;;;;;;10.23;7.03;;;;;;;9.28;96.93;94857.59;5060760;28;20562;-76
2023/05/07 01:14:26;;;;;;;10.63;6.78;;;;;;;9.16;97.48;94868.97;5060382;28;21044;-74
2023/05/07 01:16:54;;;;;;;10.90;6.88;;;;;;;9.14;97.43;94876.63;5060018;28;20273;-75
2023/05/07 01:19:21;;;;;;;11.40;7.43;;;;;;;9.18;97.18;94863.25;5060703;28;20203;-74
2023/05/07 01:21:49;;;;;;;11.90;7.32;;;;;;;9.09;97.54;94871.34;5046620;28;20199;-76
2023/05/07 01:24:18;;;;;;;9.77;6.50;;;;;;;9.18;96.64;94864.06;5060647;28;20210;-76
2023/05/07 01:26:45;;;;;;;19.10;6.15;;;;;;;9.26;95.44;94866.00;5059027;28;20211;-76
2023/05/07 01:29:12;;;;;;;9.30;5.70;;;;;;;9.17;94.38;94862.47;5048445;28;20303;-75
2023/05/07 01:31:41;;;;;;;5.95;4.10;;;;;;;9.27;93.44;94845.97;5058322;28;20223;-76
2023/05/07 01:34:10;;;;;;;5.78;3.58;;;;;;;9.31;92.59;94848.03;5060110;28;20257;-76
2023/05/07 01:36:39;;;;;;;5.45;3.55;;;;;;;9.31;91.94;94845.34;5055533;28;20210;-77
2023/05/07 01:39:07;;;;;;;6.53;3.55;;;;;;;9.34;91.42;94847.41;5053473;28;20679;-75
2023/05/07 01:41:36;;;;;;;5.75;4.35;;;;;;;9.35;91.11;94846.31;5057157;28;20204;-75
2023/05/07 01:44:04;;;;;;;5.65;3.88;;;;;;;9.36;91.05;94842.50;5049405;28;20206;-75
2023/05/07 01:46:32;;;;;;;6.20;3.58;;;;;;;9.39;90.69;94841.88;5056394;28;20235;-76
2023/05/07 01:48:59;;;;;;;7.75;4.32;;;;;;;9.43;90.81;94837.44;5060505;28;20449;-76
2023/05/07 01:51:26;;;;;;;7.28;4.22;;;;;;;9.48;91.47;94834.56;5046766;28;20219;-77
2023/05/07 01:53:54;;;;;;;6.32;4.82;;;;;;;9.56;92.12;94828.41;5051333;28;20226;-76
2023/05/07 01:56:21;;;;;;;7.80;5.00;;;;;;;9.68;92.54;94823.16;5054843;28;20228;-76
2023/05/07 01:58:50;;;;;;;9.80;4.60;;;;;;;9.97;92.70;94820.63;5050797;28;20223;-75
2023/05/07 02:01:17;;;;;;;5.20;3.08;;;;;;;10.13;91.94;94825.53;5054189;28;20635;-75
2023/05/07 02:03:44;;;;;;;9.60;5.53;;;;;;;10.19;91.58;94827.00;5059847;28;20239;-75
2023/05/07 02:06:11;;;;;;;11.48;4.78;;;;;;;10.17;91.72;94824.59;5059312;28;20205;-76
2023/05/07 02:08:38;;;;;;;6.45;3.60;;;;;;;10.16;91.57;94808.66;5053153;28;20262;-78
2023/05/07 02:11:05;;;;;;;9.15;5.10;;;;;;;10.15;91.70;94809.78;5055194;28;20230;-75
2023/05/07 02:13:33;;;;;;;7.35;4.32;;;;;;;10.16;91.49;94806.75;5063309;28;20200;-76
2023/05/07 02:16:02;;;;;;;6.82;4.63;;;;;;;10.11;92.16;94804.22;5063054;28;20202;-75
2023/05/07 02:18:29;;;;;;;7.75;4.15;;;;;;;10.12;91.75;94799.59;5049974;28;20200;-76
2023/05/07 02:20:55;;;;;;;7.32;4.70;;;;;;;10.17;91.53;94796.72;5049753;28;20200;-75
2023/05/07 02:23:22;;;;;;;11.27;6.63;;;;;;;10.10;91.60;94799.13;5042994;28;20207;-75
2023/05/07 02:25:49;;;;;;;5.88;4.22;;;;;;;10.11;91.66;94808.84;5056649;28;20219;-74
2023/05/07 02:28:16;;;;;;;6.45;4.20;;;;;;;10.17;91.18;94802.94;5036950;28;20262;-75
2023/05/07 02:30:43;;;;;;;8.80;5.80;;;;;;;10.15;91.14;94809.78;5063198;28;20285;-75
2023/05/07 02:33:12;;;;;;;8.75;5.93;;;;;;;10.10;91.15;94804.53;5056691;28;20288;-75
2023/05/07 02:35:39;;;;;;;7.25;4.85;;;;;;;9.79;91.33;94775.75;5055579;28;20728;-74
2023/05/07 02:38:05;;;;;;;6.40;4.00;;;;;;;9.97;91.42;94804.41;5062465;28;20212;-75
2023/05/07 02:40:33;;;;;;;8.77;4.93;;;;;;;9.90;91.83;94809.47;5062979;28;20293;-75
2023/05/07 02:43:00;;;;;;;7.40;5.43;;;;;;;9.83;91.79;94803.75;5057192;28;20219;-76
2023/05/07 02:45:27;;;;;;;7.90;5.40;;;;;;;9.78;92.17;94812.03;5055907;28;20261;-74
2023/05/07 02:47:53;;;;;;;11.75;5.95;;;;;;;9.67;92.49;94805.34;5061680;28;20563;-76
2023/05/07 02:50:22;;;;;;;6.97;5.35;;;;;;;9.62;92.86;94811.69;5049297;28;20765;-76
2023/05/07 02:52:48;;;;;;;8.70;5.30;;;;;;;9.50;92.75;94816.91;5049377;28;20222;-75
2023/05/07 02:55:15;;;;;;;9.98;5.55;;;;;;;9.40;93.16;94822.63;5063206;28;20227;-74
2023/05/07 02:57:42;;;;;;;12.85;5.45;;;;;;;9.42;92.92;94823.13;5057136;28;20284;-75
2023/05/07 03:00:13;;;;;;;11.70;5.50;;;;;;;9.43;92.37;94826.63;5049336;28;20215;-75
2023/05/07 03:02:40;;;;;;;7.60;5.28;;;;;;;9.38;92.38;94829.47;5059432;28;20234;-75
2023/05/07 03:05:07;;;;;;;8.88;5.07;;;;;;;9.22;92.87;94821.78;5055674;28;20199;-74
2023/05/07 03:07:36;;;;;;;9.23;6.03;;;;;;;9.32;92.84;94828.00;5058279;28;20222;-74
2023/05/07 03:10:03;;;;;;;9.15;5.50;;;;;;;9.11;93.48;94836.69;5062689;28;20207;-75
2023/05/07 03:12:31;;;;;;;9.68;5.13;;;;;;;9.04;93.63;94830.16;5049124;28;20212;-74
2023/05/07 03:14:57;;;;;;;10.05;5.90;;;;;;;9.03;94.18;94837.44;5062178;28;20617;-75
2023/05/07 03:17:24;;;;;;;10.18;5.70;;;;;;;9.02;94.63;94838.56;5059586;28;20195;-75
2023/05/07 03:19:51;;;;;;;12.63;6.43;;;;;;;9.10;94.65;94850.53;5054813;28;20211;-75
2023/05/07 03:22:17;;;;;;;8.57;5.05;;;;;;;9.08;94.21;94842.72;5057253;28;20257;-74
2023/05/07 03:24:46;;;;;;;9.82;5.93;;;;;;;9.10;94.44;94851.31;5053014;28;20211;-75
2023/05/07 03:27:12;;;;;;;7.25;5.07;;;;;;;9.23;94.00;94855.81;5057603;28;20261;-75
2023/05/07 03:29:39;;;;;;;8.55;5.38;;;;;;;9.59;94.29;94852.88;5061742;28;20199;-75
2023/05/07 03:32:06;;;;;;;9.50;5.75;;;;;;;10.02;92.03;94829.69;5060180;28;20266;-75
2023/05/07 03:34:33;;;;;;;10.80;5.78;;;;;;;10.66;89.81;94846.84;5054238;28;20727;-76
2023/05/07 03:37:00;;;;;;;8.15;5.63;;;;;;;11.33;86.62;94841.50;5057023;28;20206;-75
2023/05/07 03:39:27;;;;;;;8.43;5.75;;;;;;;12.02;82.79;94841.13;5061846;28;20199;-75
2023/05/07 03:41:55;;;;;;;8.85;5.65;;;;;;;12.61;79.36;94846.34;5059769;28;20199;-75
2023/05/07 03:44:22;;;;;;;8.25;5.18;;;;;;;13.02;76.57;94839.19;5049944;28;20212;-75
2023/05/07 03:46:48;;;;;;;9.35;5.25;;;;;;;13.32;74.15;94846.06;5059978;28;20272;-74
2023/05/07 03:49:15;;;;;;;7.15;5.47;;;;;;;13.93;73.71;94847.97;5054806;28;20198;-74
2023/05/07 03:51:42;;;;;;;11.48;5.18;;;;;;;14.46;71.83;94838.66;5054595;28;20222;-74
2023/05/07 03:54:09;;;;;;;8.73;6.00;;;;;;;15.10;68.99;94848.56;5055050;28;20253;-75
2023/05/07 03:56:36;;;;;;;9.07;7.00;;;;;;;15.16;67.01;94833.53;5054423;28;20232;-75
2023/05/07 03:59:04;;;;;;;21.38;13.27;;;;;;;15.80;66.82;94840.56;5055890;28;20261;-74
2023/05/07 04:01:31;;;;;;;18.40;8.30;;;;;;;16.30;64.94;94843.22;5061431;28;20272;-75
2023/05/07 04:03:57;;;;;;;9.35;7.25;;;;;;;16.68;62.29;94841.69;5032132;28;20243;-75
2023/05/07 04:06:24;;;;;;;9.52;6.63;;;;;;;17.38;60.52;94846.88;5041428;28;20606;-75
2023/05/07 04:08:51;;;;;;;11.13;7.60;;;;;;;17.45;59.82;94844.28;5035075;28;20701;-75
2023/05/07 04:11:18;;;;;;;9.38;6.95;;;;;;;17.53;59.28;94856.13;5034611;28;20282;-75
2023/05/07 04:13:44;;;;;;;9.70;5.72;;;;;;;17.43;59.01;94860.28;5040030;28;20204;-75
2023/05/07 04:16:12;;;;;;;8.45;5.53;;;;;;;17.97;58.10;94856.47;5041379;28;20285;-75
2023/05/07 04:18:39;;;;;;;8.52;5.25;;;;;;;18.95;55.39;94855.47;5035556;28;20207;-74
2023/05/07 04:21:06;;;;;;;10.18;6.45;;;;;;;19.55;53.48;94861.59;5032373;28;20204;-74
2023/05/07 04:23:33;;;;;;;8.23;6.72;;;;;;;19.77;52.48;94862.56;5035468;28;20215;-74
2023/05/07 04:26:00;;;;;;;16.13;6.82;;;;;;;20.48;50.57;94863.88;5033725;28;20728;-74
2023/05/07 04:28:27;;;;;;;7.70;6.05;;;;;;;20.76;49.62;94868.75;5047542;28;20199;-74
2023/05/07 04:30:54;;;;;;;11.50;6.88;;;;;;;20.56;49.77;94870.22;5034165;28;20200;-74
2023/05/07 04:33:22;;;;;;;10.13;6.38;;;;;;;20.95;49.45;94859.38;5038608;28;20348;-73
2023/05/07 04:35:49;;;;;;;9.93;6.20;;;;;;;21.17;48.13;94863.78;5040993;28;20231;-74
2023/05/07 04:38:16;;;;;;;8.43;6.32;;;;;;;21.64;47.36;94867.44;5036757;28;20219;-76
2023/05/07 04:40:43;;;;;;;9.90;6.63;;;;;;;22.08;46.84;94874.56;5033938;28;20204;-74
2023/05/07 04:43:09;;;;;;;7.85;6.20;;;;;;;22.13;46.08;94872.22;5038219;28;20205;-74
2023/05/07 04:45:36;;;;;;;10.35;6.80;;;;;;;22.38;44.98;94871.41;5029603;28;20910;-75
2023/05/07 04:48:03;;;;;;;12.10;6.63;;;;;;;21.94;46.23;94870.59;5047069;28;20202;-74
2023/05/07 04:50:31;;;;;;;9.02;6.90;;;;;;;22.70;45.07;94872.09;5031100;28;20196;-75
2023/05/07 04:52:58;;;;;;;9.68;7.03;;;;;;;23.90;42.08;94869.97;5037575;28;20260;-75
2023/05/07 04:55:25;;;;;;;9.52;6.68;;;;;;;24.04;41.14;94865.09;5033584;28;20719;-74
2023/05/07 04:57:52;;;;;;;8.73;6.43;;;;;;;24.30;41.63;94866.47;5035550;28;20271;-73
2023/05/07 05:00:19;;;;;;;9.52;6.68;;;;;;;24.54;40.35;94861.88;5031480;28;20305;-74
2023/05/07 05:02:46;;;;;;;9.52;6.85;;;;;;;24.70;39.71;94873.19;5041519;28;20227;-75
2023/05/07 05:05:13;;;;;;;9.38;6.85;;;;;;;25.29;39.15;94859.03;5058007;28;20627;-75
2023/05/07 05:07:41;;;;;;;8.90;6.13;;;;;;;25.57;38.61;94857.06;5055153;28;20200;-74
2023/05/07 05:10:08;;;;;;;9.98;6.88;;;;;;;24.99;39.14;94862.59;5060854;28;20582;-73
2023/05/07 05:12:34;;;;;;;7.85;6.78;;;;;;;25.88;37.10;94855.06;5058882;28;20202;-75
2023/05/07 05:15:01;;;;;;;8.75;6.65;;;;;;;25.10;38.74;94852.16;5053526;28;20222;-74
2023/05/07 05:17:28;;;;;;;9.98;6.43;;;;;;;25.86;37.72;94852.69;5055282;28;20627;-74
2023/05/07 05:19:55;;;;;;;7.60;6.47;;;;;;;26.68;36.25;94852.09;5051586;28;20207;-73
2023/05/07 05:22:21;;;;;;;8.70;6.40;;;;;;;26.57;36.96;94856.28;5066770;28;20264;-73
2023/05/07 05:24:50;;;;;;;11.45;6.55;;;;;;;25.39;38.28;94858.13;5052879;28;20201;-75
2023/05/07 05:27:16;;;;;;;7.28;6.57;;;;;;;25.98;37.41;94851.31;5053716;28;20287;-74
2023/05/07 05:29:43;;;;;;;8.00;6.45;;;;;;;26.18;37.66;94863.28;5059942;28;20207;-75
2023/05/07 05:32:10;;;;;;;12.07;6.28;;;;;;;26.43;36.70;94860.91;5059623;28;20206;-76
2023/05/07 05:34:37;;;;;;;8.52;6.45;;;;;;;26.63;36.27;94860.16;5053296;28;20199;-75
2023/05/07 05:37:03;;;;;;;7.90;6.63;;;;;;;27.12;35.29;94869.56;5053817;28;20215;-76
2023/05/07 05:39:30;;;;;;;9.00;6.38;;;;;;;25.91;37.31;94866.13;5058907;28;20563;-75
2023/05/07 05:41:58;;;;;;;8.70;6.38;;;;;;;26.55;35.96;94865.84;5059042;28;20286;-74
2023/05/07 05:44:25;;;;;;;7.65;6.25;;;;;;;26.35;36.22;94861.47;5058868;28;20269;-75
2023/05/07 05:46:54;;;;;;;8.30;6.20;;;;;;;26.65;36.06;94863.31;5061593;28;20289;-74
2023/05/07 05:49:21;;;;;;;9.27;6.32;;;;;;;27.71;34.48;94861.16;5057327;28;20211;-75
2023/05/07 05:51:48;;;;;;;8.00;6.10;;;;;;;28.58;32.77;94864.22;5055375;28;20204;-75
2023/05/07 05:54:15;;;;;;;8.70;5.88;;;;;;;28.76;32.51;94861.75;5048583;28;20199;-76
2023/05/07 05:56:42;;;;;;;8.88;6.93;;;;;;;28.70;32.65;94857.91;5063341;28;20243;-74
2023/05/07 05:59:10;;;;;;;7.80;5.85;;;;;;;27.52;33.41;94859.94;5049421;28;20720;-74
2023/05/07 06:01:37;;;;;;;6.78;5.82;;;;;;;27.41;34.01;94858.63;5048933;28;20204;-74
2023/05/07 06:04:05;;;;;;;7.22;6.22;;;;;;;28.05;33.15;94857.97;5057064;28;20759;-74
2023/05/07 06:06:32;;;;;;;7.28;5.85;;;;;;;28.23;33.48;94863.94;5064605;28;20273;-73
2023/05/07 06:08:58;;;;;;;6.43;5.50;;;;;;;27.83;33.43;94870.84;5060119;28;20227;-73
2023/05/07 06:11:25;;;;;;;10.05;6.25;;;;;;;28.30;32.92;94869.31;5056802;28;20708;-74
2023/05/07 06:13:52;;;;;;;8.27;5.18;;;;;;;28.88;31.91;94869.44;5064393;28;20298;-73
2023/05/07 06:16:20;;;;;;;8.98;5.63;;;;;;;28.67;32.09;94867.19;5064703;28;20234;-74
2023/05/07 06:18:47;;;;;;;7.03;5.32;;;;;;;28.51;31.73;94861.63;5043512;28;20278;-76
2023/05/07 06:21:14;;;;;;;5.93;5.43;;;;;;;28.96;31.97;94862.44;5049138;28;20215;-76
2023/05/07 06:23:41;;;;;;;8.20;5.57;;;;;;;28.90;31.43;94861.41;5058781;28;20211;-77
2023/05/07 06:26:08;;;;;;;8.50;5.68;;;;;;;28.62;31.91;94856.56;5063213;28;20249;-76
2023/05/07 06:28:35;;;;;;;8.32;5.93;;;;;;;27.84;33.09;94855.69;5059030;28;20496;-76
2023/05/07 06:31:12;;;;;;;6.95;5.40;;;;;;;28.66;32.98;94851.69;5051662;28;20285;-75
2023/05/07 06:33:41;;;;;;;7.32;5.00;;;;;;;29.08;31.32;94852.53;5051110;28;20203;-75
2023/05/07 06:36:08;;;;;;;8.80;5.35;;;;;;;29.26;31.19;94843.66;5062418;28;20714;-75
2023/05/07 06:38:34;;;;;;;6.47;5.32;;;;;;;29.05;31.64;94849.84;5048576;28;20205;-75
2023/05/07 06:41:01;;;;;;;5.68;5.18;;;;;;;28.45;32.56;94844.66;5060149;28;20264;-75
2023/05/07 06:43:28;;;;;;;7.88;5.18;;;;;;;26.44;35.45;94848.59;5064717;28;20752;-74
2023/05/07 06:45:55;;;;;;;5.85;5.22;;;;;;;26.35;35.10;94855.91;5055846;28;20215;-74
2023/05/07 06:48:22;;;;;;;7.15;5.07;;;;;;;27.40;33.72;94840.34;5053335;28;20265;-75
2023/05/07 06:50:51;;;;;;;5.88;5.10;;;;;;;27.44;34.00;94835.50;5044216;28;20884;-76
2023/05/07 06:53:18;;;;;;;10.27;6.45;;;;;;;28.21;32.03;94832.91;5050108;28;20254;-74
2023/05/07 06:55:45;;;;;;;7.00;4.50;;;;;;;27.45;32.69;94837.84;5041490;28;20232;-74
2023/05/07 06:58:11;;;;;;;5.20;4.38;;;;;;;26.83;32.93;94838.72;5044844;28;20596;-73
2023/05/07 07:00:38;;;;;;;5.97;4.43;;;;;;;26.05;34.27;94837.34;5044144;28;20200;-75
2023/05/07 07:03:05;;;;;;;6.20;4.78;;;;;;;25.83;34.97;94831.34;5046704;28;20228;-75
2023/05/07 07:05:32;;;;;;;5.45;4.07;;;;;;;26.34;34.22;94838.44;5045357;28;20203;-76
2023/05/07 07:08:00;;;;;;;6.97;4.43;;;;;;;27.17;33.96;94838.47;5047345;28;20210;-75
2023/05/07 07:10:27;;;;;;;8.80;4.75;;;;;;;28.05;32.97;94830.09;5047657;28;20203;-76
2023/05/07 07:12:53;;;;;;;6.63;4.45;;;;;;;29.01;31.24;94833.19;5049506;28;20207;-76
2023/05/07 07:15:21;;;;;;;7.18;4.90;;;;;;;29.08;30.79;94826.66;5047194;28;20562;-76
2023/05/07 07:17:49;;;;;;;7.43;5.13;;;;;;;28.80;32.06;94822.66;5045411;28;20223;-75
2023/05/07 07:20:16;;;;;;;8.65;5.72;;;;;;;28.12;32.84;94824.38;5048531;28;20196;-76
2023/05/07 07:22:42;;;;;;;8.25;5.70;;;;;;;28.40;33.18;94822.91;5048974;28;20220;-76
2023/05/07 07:25:11;;;;;;;7.78;5.53;;;;;;;28.29;33.13;94823.16;5045863;28;20533;-76
2023/05/07 07:27:39;;;;;;;11.57;5.72;;;;;;;28.12;33.27;94824.38;5046018;28;20806;-75
2023/05/07 07:30:07;;;;;;;8.05;5.63;;;;;;;28.13;33.68;94825.94;5047261;28;20601;-74
2023/05/07 07:32:35;;;;;;;7.78;5.38;;;;;;;28.28;33.73;94820.81;5043526;28;20677;-76
2023/05/07 07:35:02;;;;;;;9.73;6.10;;;;;;;27.86;33.89;94820.63;5045189;28;20724;-75
2023/05/07 07:37:29;;;;;;;6.85;5.75;;;;;;;27.45;34.73;94821.16;5041995;28;20235;-74
2023/05/07 07:39:59;;;;;;;11.25;7.13;;;;;;;26.39;36.37;94826.84;5046972;28;20290;-75
2023/05/07 07:42:29;;;;;;;10.45;6.70;;;;;;;26.32;36.94;94817.84;5046627;28;20566;-76
2023/05/07 07:44:56;;;;;;;10.93;6.68;;;;;;;25.22;38.74;94831.41;5044157;28;20330;-75
2023/05/07 07:47:23;;;;;;;11.60;7.20;;;;;;;25.68;37.85;94825.25;5049157;28;20227;-76
2023/05/07 07:49:50;;;;;;;9.43;7.03;;;;;;;24.33;40.53;94837.16;5059705;28;20203;-76
2023/05/07 07:52:17;;;;;;;9.63;7.25;;;;;;;24.75;40.59;94842.25;5047064;28;20208;-75
2023/05/07 07:54:44;;;;;;;14.30;8.65;;;;;;;25.45;39.82;94839.78;5050293;28;20254;-76
2023/05/07 07:57:10;;;;;;;9.68;7.47;;;;;;;24.67;41.89;94846.31;5044170;28;20740;-75
2023/05/07 07:59:39;;;;;;;12.57;8.90;;;;;;;24.43;41.80;94842.63;5043599;28;20624;-75
2023/05/07 08:02:06;;;;;;;13.38;8.05;;;;;;;24.12;42.54;94842.88;5037143;28;20208;-75
2023/05/07 08:04:33;;;;;;;9.75;7.00;;;;;;;23.80;42.31;94840.38;5042432;28;20215;-76
2023/05/07 08:07:00;;;;;;;8.05;6.80;;;;;;;23.83;42.27;94843.09;5046802;28;20250;-75
2023/05/07 08:09:27;;;;;;;9.73;6.95;;;;;;;23.91;42.25;94838.31;5049468;28;20234;-75
2023/05/07 08:11:54;;;;;;;10.13;7.47;;;;;;;24.49;42.04;94834.63;5059163;28;20207;-75
2023/05/07 08:14:21;;;;;;;9.18;7.18;;;;;;;24.05;41.40;94833.44;5053400;28;20291;-76
2023/05/07 08:16:49;;;;;;;9.55;7.93;;;;;;;22.22;45.60;94853.28;5049341;28;20272;-75
2023/05/07 08:19:16;;;;;;;9.90;7.97;;;;;;;22.51;44.23;94842.19;5041791;28;20230;-75
2023/05/07 08:21:44;;;;;;;9.10;7.15;;;;;;;22.65;44.17;94834.63;5045061;28;20223;-74
2023/05/07 08:24:11;;;;;;;10.88;8.43;;;;;;;23.68;43.32;94830.56;5039882;28;20207;-74
2023/05/07 08:26:39;;;;;;;9.52;8.23;;;;;;;24.18;42.46;94827.41;5040311;28;20261;-72
2023/05/07 08:29:05;;;;;;;14.60;7.10;;;;;;;23.45;43.48;94830.31;5045185;28;20233;-73
2023/05/07 08:31:32;;;;;;;11.13;7.20;;;;;;;23.59;41.43;94828.28;5045417;28;20655;-74
2023/05/07 08:34:01;;;;;;;9.07;6.82;;;;;;;24.01;40.78;94821.63;5059373;28;20207;-75
2023/05/07 08:36:28;;;;;;;12.23;6.70;;;;;;;24.57;40.22;94825.06;5044131;28;20702;-74
2023/05/07 08:38:55;;;;;;;9.23;6.78;;;;;;;23.58;41.02;94820.38;5045141;28;21439;-77
2023/05/07 08:41:22;;;;;;;8.65;5.95;;;;;;;23.34;41.80;94822.88;5042246;28;20282;-75
2023/05/07 08:43:50;;;;;;;9.25;6.03;;;;;;;24.18;40.95;94824.63;5044390;28;20451;-76
2023/05/07 08:46:19;;;;;;;8.60;5.85;;;;;;;23.26;40.05;94821.34;5046375;28;20627;-75
2023/05/07 08:48:46;;;;;;;10.75;5.90;;;;;;;23.35;40.95;94813.41;5058863;28;20207;-77
2023/05/07 08:51:17;;;;;;;8.13;5.45;;;;;;;23.84;40.98;94822.56;5043676;28;20895;-76
2023/05/07 08:53:45;;;;;;;9.77;6.30;;;;;;;23.54;41.44;94816.84;5048415;28;20210;-75
2023/05/07 08:56:12;;;;;;;6.38;5.78;;;;;;;23.43;41.59;94816.91;5055519;28;20323;-75
2023/05/07 08:58:39;;;;;;;8.10;5.93;;;;;;;24.19;42.03;94809.59;5053947;28;20207;-75
2023/05/07 09:01:09;;;;;;;7.25;6.32;;;;;;;24.19;40.35;94804.06;5039989;28;20211;-74
2023/05/07 09:03:37;;;;;;;10.35;6.50;;;;;;;23.84;39.83;94794.88;5040931;28;20277;-75
2023/05/07 09:06:04;;;;;;;11.45;7.03;;;;;;;23.81;40.50;94800.44;5039911;28;20265;-75
2023/05/07 09:08:34;;;;;;;14.68;7.63;;;;;;;22.51;43.97;94798.78;5038715;28;20248;-74
2023/05/07 09:11:02;;;;;;;9.77;6.75;;;;;;;22.98;43.11;94800.19;5044517;28;20203;-74
2023/05/07 09:13:29;;;;;;;10.75;6.70;;;;;;;23.32;42.01;94792.09;5037669;28;20196;-77
2023/05/07 09:15:56;;;;;;;9.85;7.03;;;;;;;22.39;44.61;94796.47;5046196;28;20207;-76
2023/05/07 09:18:25;;;;;;;8.88;7.00;;;;;;;22.37;43.94;94793.31;5059687;28;20203;-75
2023/05/07 09:20:52;;;;;;;10.13;7.18;;;;;;;22.31;43.99;94790.16;5045088;28;20236;-76
2023/05/07 09:23:19;;;;;;;8.05;7.20;;;;;;;22.72;43.08;94786.06;5061628;28;20204;-75
2023/05/07 09:25:47;;;;;;;9.35;7.35;;;;;;;22.39;44.06;94790.94;5047992;28;20258;-75
2023/05/07 09:28:14;;;;;;;8.07;7.28;;;;;;;22.72;42.21;94775.00;5059111;28;20211;-76
2023/05/07 09:30:41;;;;;;;8.18;6.45;;;;;;;22.91;42.90;94777.34;5044413;28;20309;-77
2023/05/07 09:33:07;;;;;;;10.45;6.40;;;;;;;22.73;43.15;94773.84;5048611;28;21026;-76
2023/05/07 09:35:34;;;;;;;10.30;5.90;;;;;;;23.59;41.19;94772.16;5046197;28;20204;-75
2023/05/07 09:38:02;;;;;;;10.68;6.35;;;;;;;22.83;41.73;94779.34;5048639;28;20239;-76
2023/05/07 09:40:31;;;;;;;8.00;5.97;;;;;;;22.24;43.71;94781.13;5045094;28;20291;-76
2023/05/07 09:43:10;;;;;;;13.05;6.88;;;;;;;22.31;43.51;94775.56;5048415;28;20606;-75
2023/05/07 09:45:38;;;;;;;10.68;5.97;;;;;;;21.86;42.97;94780.78;5043740;28;20601;-74
2023/05/07 09:48:06;;;;;;;6.72;5.95;;;;;;;22.63;43.75;94776.25;5047009;28;20556;-75
2023/05/07 09:50:37;;;;;;;8.73;6.00;;;;;;;23.04;42.28;94770.16;5046684;28;20278;-76
2023/05/07 09:53:05;;;;;;;9.13;5.65;;;;;;;23.10;40.50;94765.75;5045859;28;20220;-76
2023/05/07 09:55:32;;;;;;;8.07;5.15;;;;;;;23.33;40.55;94779.84;5046858;28;20657;-75
2023/05/07 09:58:02;;;;;;;7.28;4.18;;;;;;;23.42;38.89;94764.75;5045781;28;20220;-76
2023/05/07 10:00:30;;;;;;;4.72;4.00;;;;;;;23.61;38.06;94769.78;5048329;28;20201;-75
2023/05/07 10:02:59;;;;;;;5.05;3.30;;;;;;;23.05;38.03;94763.44;5044118;28;20234;-75
2023/05/07 10:05:26;;;;;;;4.00;3.60;;;;;;;22.97;37.12;94759.13;5046621;28;20199;-76
2023/05/07 10:07:55;;;;;;;8.05;4.05;;;;;;;22.71;37.38;94757.66;5043921;28;20210;-76
2023/05/07 10:10:23;;;;;;;5.40;3.83;;;;;;;22.36;37.52;94761.38;5048127;28;20551;-75
2023/05/07 10:12:51;;;;;;;5.70;3.55;;;;;;;22.60;37.56;94757.72;5044046;28;20261;-78
2023/05/07 10:15:19;;;;;;;5.43;3.70;;;;;;;22.69;37.79;94754.50;5039666;28;20204;-75
2023/05/07 10:17:47;;;;;;;4.85;3.53;;;;;;;22.87;38.33;94757.22;5044752;28;20223;-76
2023/05/07 10:20:14;;;;;;;5.15;3.70;;;;;;;23.20;37.61;94745.56;5043059;28;20203;-75
2023/05/07 10:22:44;;;;;;;6.22;3.50;;;;;;;22.86;36.87;94750.13;5043035;28;20207;-77
2023/05/07 10:25:19;;;;;;;3.97;3.25;;;;;;;23.60;36.52;94746.09;5042151;28;20200;-76
2023/05/07 10:27:47;;;;;;;3.55;3.05;;;;;;;24.34;34.69;94744.56;5043827;28;20206;-76
2023/05/07 10:30:27;;;;;;;5.32;3.22;;;;;;;24.22;34.50;94736.78;5041636;28;20905;-75
2023/05/07 10:32:57;;;;;;;4.93;3.60;;;;;;;24.16;34.91;94730.13;5045626;28;20191;-75
2023/05/07 10:35:27;;;;;;;6.82;3.85;;;;;;;24.55;35.02;94716.63;5048850;28;20235;-75
2023/05/07 10:37:54;;;;;;;6.18;4.57;;;;;;;24.68;34.69;94725.97;5062479;28;20231;-74
2023/05/07 10:40:22;;;;;;;5.65;3.95;;;;;;;24.69;34.42;94716.47;5049297;28;20227;-73
2023/05/07 10:42:56;;;;;;;6.60;4.22;;;;;;;23.95;35.32;94718.06;5062178;28;20210;-74
2023/05/07 10:45:25;;;;;;;11.38;4.47;;;;;;;23.59;36.18;94725.94;5062572;28;20289;-76
2023/05/07 10:48:09;;;;;;;4.55;3.85;;;;;;;23.52;36.85;94716.91;5056775;28;20206;-76
2023/05/07 10:50:36;;;;;;;5.55;3.95;;;;;;;23.36;36.52;94731.25;5051973;28;20253;-76
2023/05/07 10:53:25;;;;;;;5.43;3.97;;;;;;;24.09;36.82;94722.69;5059898;28;20215;-76
2023/05/07 10:56:13;;;;;;;6.00;4.60;;;;;;;24.78;35.54;94705.63;5044743;28;20286;-76
2023/05/07 10:58:40;;;;;;;5.03;3.80;;;;;;;25.15;34.96;94706.72;5050561;28;20269;-75
2023/05/07 11:01:08;;;;;;;5.47;3.47;;;;;;;24.91;33.71;94710.59;5059215;28;20202;-76
2023/05/07 11:03:35;;;;;;;5.60;3.70;;;;;;;23.89;35.21;94716.97;5054635;28;20876;-74
2023/05/07 11:06:12;;;;;;;4.07;3.65;;;;;;;24.51;33.72;94713.13;5057854;28;20742;-77
2023/05/07 11:08:56;;;;;;;4.55;4.05;;;;;;;23.94;35.19;94715.72;5053849;28;20628;-76
2023/05/07 11:11:47;;;;;;;5.60;4.30;;;;;;;23.27;36.40;94712.34;5054980;28;20204;-76
2023/05/07 11:14:14;;;;;;;5.10;4.03;;;;;;;23.81;37.72;94711.91;5051122;28;20242;-75
2023/05/07 11:16:44;;;;;;;4.43;3.92;;;;;;;24.27;35.52;94700.38;5055156;28;20288;-76
2023/05/07 11:19:11;;;;;;;4.70;4.03;;;;;;;24.60;35.87;94701.56;5055932;28;20257;-75
2023/05/07 11:21:39;;;;;;;7.85;4.15;;;;;;;24.12;35.94;94710.00;5060854;28;20203;-76
2023/05/07 11:24:06;;;;;;;5.25;4.00;;;;;;;23.87;36.24;94705.53;5046931;28;20337;-77
2023/05/07 11:26:44;;;;;;;4.78;4.28;;;;;;;24.30;34.57;94697.56;5043280;28;20667;-76
2023/05/07 11:29:16;;;;;;;7.07;4.00;;;;;;;24.87;34.61;94693.25;5042027;28;20199;-76
2023/05/07 11:31:45;;;;;;;4.00;3.60;;;;;;;25.15;33.81;94692.84;5044265;28;20212;-76
2023/05/07 11:34:12;;;;;;;4.47;3.88;;;;;;;24.40;34.65;94693.88;5041531;28;20195;-78
2023/05/07 11:36:44;;;;;;;5.03;4.00;;;;;;;23.99;34.67;94696.69;5050575;28;20697;-75